aviador You're here:

KDVP Decoded Metar

SLAYTON in MN, USA
Report Time2017-07-23 00:29:00
UTC Time2017-07-23 00:44:51
Flight Rules vfr VFR
Wind280° at 08 kt
W.Decomp.*RWY 35: 2.2 kt HW 7.7 kt LCW
W.Rank280° ranks 8
Current wind is below 280° avg. (10.6)
Visibility9999 m
Phenomena:N/A
Clouds:N/A
Expected CloudBase > 3,600 ft AGL from Temp-Dew spread
CeilingNone
Temp28°C (ISA +16)
Dew Point19°C (58% RH)
Heat Index29.2°C
QNH1013 hPa
Density Alt3,783 ft
Elevation1,624 ft
Report Wrong Elevation
Raw Report
KDVP 230029Z AUTO 28008KT 10SM CLR 28/19 A2992 RMK AO2
T02760186=

Extra information for KDVP:More info

Metar Taf Metar & Taf Last 4 Metars F.Rules Stats Wind Profile Meteogram Temp Stats Airport Information Weather charts Add Link Nearby VenuesMetar ALERT Operation Metar Decoded Social comments

AIRNAV info for KDVP